Time;durP1;ratioP1;P1;durP2;ratioP2;P2;SDS_P1;SDS_P2;PMS_P1;PMS_P2;Temp;Humidity;BMP_temperature;BMP_pressure;BME280_temperature;BME280_humidity;BME280_pressure;Samples;Min_cycle;Max_cycle;Signal;HPM_P1;HPM_P2
2021/11/26 00:00:07;;;;;;;;;;;;;;;;;;1010336;29;879;-29
2021/11/26 00:00:38;;;;;;;;;;;;;;;;;;1010475;29;811;-29
2021/11/26 00:01:08;;;;;;;;;;;;;;;;;;1010426;29;776;-29
2021/11/26 00:01:39;;;;;;;;;;;;;;;;;;1010593;29;832;-29
2021/11/26 00:02:10;;;;;;;;;;;;;;;;;;1010094;29;807;-29
2021/11/26 00:02:40;;;;;;;;;;;;;;;;;;1010536;29;800;-29
2021/11/26 00:03:11;;;;;;;;;;;;;;;;;;1010360;29;906;-29
2021/11/26 00:03:41;;;;;;;;;;;;;;;;;;1010244;29;815;-29
2021/11/26 00:04:12;;;;;;;;;;;;;;;;;;1010229;29;871;-29
2021/11/26 00:04:42;;;;;;;;;;;;;;;;;;1010397;29;879;-29
2021/11/26 00:05:13;;;;;;;;;;;;;;;;;;1010354;29;848;-29
2021/11/26 00:05:43;;;;;;;;;;;;;;;;;;1010533;29;816;-29
2021/11/26 00:06:14;;;;;;;;;;;;;;;;;;1010220;29;911;-29
2021/11/26 00:06:44;;;;;;;;;;;;;;;;;;1010280;29;824;-29
2021/11/26 00:07:15;;;;;;;;;;;;;;;;;;1010470;29;612;-29
2021/11/26 00:07:45;;;;;;;;;;;;;;;;;;1010595;29;878;-29
2021/11/26 00:08:16;;;;;;;;;;;;;;;;;;1010364;29;831;-29
2021/11/26 00:08:46;;;;;;;;;;;;;;;;;;1010487;29;827;-29
2021/11/26 00:09:17;;;;;;;;;;;;;;;;;;1010260;29;1147;-29
2021/11/26 00:09:48;;;;;;;;;;;;;;;;;;1010469;29;795;-29
2021/11/26 00:10:19;;;;;;;;;;;;;;;;;;1010204;29;780;-29
2021/11/26 00:10:49;;;;;;;;;;;;;;;;;;1010447;29;791;-29
2021/11/26 00:11:20;;;;;;;;;;;;;;;;;;1010421;29;771;-29
2021/11/26 00:11:50;;;;;;;;;;;;;;;;;;1010301;29;1990;-29
2021/11/26 00:12:21;;;;;;;;;;;;;;;;;;1010377;29;926;-29
2021/11/26 00:12:55;;;;;;;;;;;;;;;;;;1010216;29;866;-29
2021/11/26 00:13:32;;;;;;;;;;;;;;;;;;1010454;29;835;-29
2021/11/26 00:14:22;;;;;;;;;;;;;;;;;;1010155;29;1401;-29
2021/11/26 00:15:09;;;;;;;;;;;;;;;;;;1010243;29;1205;-29
2021/11/26 00:15:41;;;;;;;;;;;;;;;;;;1010352;29;840;-29
2021/11/26 00:16:19;;;;;;;;;;;;;;;;;;1010518;29;828;-29
2021/11/26 00:16:56;;;;;;;;;;;;;;;;;;1010085;29;854;-29
2021/11/26 00:17:27;;;;;;;;;;;;;;;;;;1010372;29;871;-29
2021/11/26 00:18:04;;;;;;;;;;;;;;;;;;1010267;29;834;-29
2021/11/26 00:18:43;;;;;;;;;;;;;;;;;;1005678;29;1001;-29
2021/11/26 00:19:14;;;;;;;;;;;;;;;;;;1005743;29;1105;-29
2021/11/26 00:19:44;;;;;;;;;;;;;;;;;;1005766;29;1083;-29
2021/11/26 00:20:15;;;;;;;;;;;;;;;;;;1006238;29;855;-29
2021/11/26 00:20:46;;;;;;;;;;;;;;;;;;1010234;29;824;-29
2021/11/26 00:21:17;;;;;;;;;;;;;;;;;;1010402;29;895;-29
2021/11/26 00:21:47;;;;;;;;;;;;;;;;;;1010399;29;800;-29
2021/11/26 00:22:18;;;;;;;;;;;;;;;;;;1010361;29;791;-29
2021/11/26 00:22:49;;;;;;;;;;;;;;;;;;1013295;29;903;-29
2021/11/26 00:23:20;;;;;;;;;;;;;;;;;;1013551;29;1115;-29
2021/11/26 00:23:50;;;;;;;;;;;;;;;;;;1013445;29;890;-29
2021/11/26 00:24:21;;;;;;;;;;;;;;;;;;1013554;29;957;-29
2021/11/26 00:24:53;;;;;;;;;;;;;;;;;;1010090;29;902;-29
2021/11/26 00:25:23;;;;;;;;;;;;;;;;;;1009186;29;1014;-30
2021/11/26 00:25:54;;;;;;;;;;;;;;;;;;1005501;29;1349;-29
2021/11/26 00:26:24;;;;;;;;;;;;;;;;;;1005746;29;886;-29
2021/11/26 00:26:55;;;;;;;;;;;;;;;;;;1005813;29;816;-29
2021/11/26 00:27:25;;;;;;;;;;;;;;;;;;1009832;29;836;-29
2021/11/26 00:27:56;;;;;;;;;;;;;;;;;;1013853;29;1166;-29
2021/11/26 00:28:26;;;;;;;;;;;;;;;;;;1013949;29;823;-29
2021/11/26 00:28:57;;;;;;;;;;;;;;;;;;1013816;29;851;-29
2021/11/26 00:29:27;;;;;;;;;;;;;;;;;;1013683;29;905;-29
2021/11/26 00:29:58;;;;;;;;;;;;;;;;;;1010200;29;815;-29
2021/11/26 00:30:28;;;;;;;;;;;;;;;;;;1010455;29;933;-29
2021/11/26 00:30:59;;;;;;;;;;;;;;;;;;1010246;29;792;-29
2021/11/26 00:31:29;;;;;;;;;;;;;;;;;;1010132;29;1907;-29
2021/11/26 00:32:00;;;;;;;;;;;;;;;;;;1010332;29;796;-29
2021/11/26 00:32:30;;;;;;;;;;;;;;;;;;1010377;29;804;-29
2021/11/26 00:33:01;;;;;;;;;;;;;;;;;;1010226;29;931;-29
2021/11/26 00:33:32;;;;;;;;;;;;;;;;;;1010306;29;843;-29
2021/11/26 00:34:03;;;;;;;;;;;;;;;;;;1010211;29;854;-29
2021/11/26 00:34:34;;;;;;;;;;;;;;;;;;1010090;29;760;-29
2021/11/26 00:35:05;;;;;;;;;;;;;;;;;;1010501;29;788;-30
2021/11/26 00:35:35;;;;;;;;;;;;;;;;;;1010222;29;974;-29
2021/11/26 00:36:05;;;;;;;;;;;;;;;;;;1010545;29;868;-29
2021/11/26 00:36:36;;;;;;;;;;;;;;;;;;1010096;29;891;-29
2021/11/26 00:37:07;;;;;;;;;;;;;;;;;;1010304;29;816;-29
2021/11/26 00:37:37;;;;;;;;;;;;;;;;;;1010285;29;858;-29
2021/11/26 00:38:08;;;;;;;;;;;;;;;;;;1010336;29;939;-29
2021/11/26 00:38:38;;;;;;;;;;;;;;;;;;1010149;29;899;-29
2021/11/26 00:39:09;;;;;;;;;;;;;;;;;;1009998;29;1227;-29
2021/11/26 00:39:39;;;;;;;;;;;;;;;;;;1010087;29;942;-29
2021/11/26 00:40:10;;;;;;;;;;;;;;;;;;1010220;29;847;-29
2021/11/26 00:40:41;;;;;;;;;;;;;;;;;;1010271;29;1013;-29
2021/11/26 00:41:12;;;;;;;;;;;;;;;;;;1010293;29;862;-29
2021/11/26 00:41:42;;;;;;;;;;;;;;;;;;1010268;29;954;-29
2021/11/26 00:42:13;;;;;;;;;;;;;;;;;;1010213;29;867;-29
2021/11/26 00:42:43;;;;;;;;;;;;;;;;;;1010473;29;887;-29
2021/11/26 00:43:14;;;;;;;;;;;;;;;;;;1010164;29;843;-32
2021/11/26 00:43:45;;;;;;;;;;;;;;;;;;1009453;29;973;-29
2021/11/26 00:44:15;;;;;;;;;;;;;;;;;;1009484;29;921;-29
2021/11/26 00:44:46;;;;;;;;;;;;;;;;;;1009425;29;1111;-29
2021/11/26 00:45:16;;;;;;;;;;;;;;;;;;1009812;29;796;-29
2021/11/26 00:45:47;;;;;;;;;;;;;;;;;;1010333;29;868;-29
2021/11/26 00:46:18;;;;;;;;;;;;;;;;;;1007207;29;1345;-29
2021/11/26 00:46:49;;;;;;;;;;;;;;;;;;1006244;29;1086;-29
2021/11/26 00:47:21;;;;;;;;;;;;;;;;;;1006563;29;772;-29
2021/11/26 00:47:51;;;;;;;;;;;;;;;;;;1006475;29;942;-29
2021/11/26 00:48:22;;;;;;;;;;;;;;;;;;1006298;29;864;-29
2021/11/26 00:48:52;;;;;;;;;;;;;;;;;;1006266;29;867;-29
2021/11/26 00:49:23;;;;;;;;;;;;;;;;;;1006504;29;859;-29
2021/11/26 00:49:53;;;;;;;;;;;;;;;;;;1006229;29;901;-29
2021/11/26 00:50:24;;;;;;;;;;;;;;;;;;1006464;29;828;-29
2021/11/26 00:50:54;;;;;;;;;;;;;;;;;;1006356;29;792;-29
2021/11/26 00:51:25;;;;;;;;;;;;;;;;;;1005737;29;1063;-29
2021/11/26 00:51:56;;;;;;;;;;;;;;;;;;1005600;29;1907;-29
2021/11/26 00:52:26;;;;;;;;;;;;;;;;;;1005721;29;979;-29
2021/11/26 00:52:56;;;;;;;;;;;;;;;;;;1005713;29;832;-29
2021/11/26 00:53:27;;;;;;;;;;;;;;;;;;1006301;29;1327;-29
2021/11/26 00:53:58;;;;;;;;;;;;;;;;;;1006084;29;1035;-29
2021/11/26 00:54:29;;;;;;;;;;;;;;;;;;1006076;29;884;-29
2021/11/26 00:54:59;;;;;;;;;;;;;;;;;;1006322;29;883;-29
2021/11/26 00:55:30;;;;;;;;;;;;;;;;;;1006572;29;1033;-29
2021/11/26 00:56:01;;;;;;;;;;;;;;;;;;1006395;29;872;-29
2021/11/26 00:56:31;;;;;;;;;;;;;;;;;;1006183;29;891;-29
2021/11/26 00:57:06;;;;;;;;;;;;;;;;;;1006320;29;883;-29
2021/11/26 00:57:37;;;;;;;;;;;;;;;;;;1006344;29;984;-29
2021/11/26 00:58:08;;;;;;;;;;;;;;;;;;1006493;29;880;-29
2021/11/26 00:58:39;;;;;;;;;;;;;;;;;;1006511;29;871;-29
2021/11/26 00:59:09;;;;;;;;;;;;;;;;;;1006196;29;842;-29
2021/11/26 00:59:40;;;;;;;;;;;;;;;;;;1006452;29;939;-29
2021/11/26 01:00:12;;;;;;;;;;;;;;;;;;1006272;29;903;-29
2021/11/26 01:00:42;;;;;;;;;;;;;;;;;;1006445;29;849;-29
2021/11/26 01:01:13;;;;;;;;;;;;;;;;;;1006445;29;1558;-29
2021/11/26 01:01:43;;;;;;;;;;;;;;;;;;1006510;29;923;-29
2021/11/26 01:02:14;;;;;;;;;;;;;;;;;;1006337;29;824;-29
2021/11/26 01:02:45;;;;;;;;;;;;;;;;;;1006452;29;816;-29
2021/11/26 01:03:16;;;;;;;;;;;;;;;;;;1006299;29;890;-29
2021/11/26 01:03:46;;;;;;;;;;;;;;;;;;1006456;29;851;-29
2021/11/26 01:04:17;;;;;;;;;;;;;;;;;;1006251;29;806;-29
2021/11/26 01:04:47;;;;;;;;;;;;;;;;;;1006379;29;876;-29
2021/11/26 01:05:18;;;;;;;;;;;;;;;;;;1006349;29;829;-29
2021/11/26 01:05:49;;;;;;;;;;;;;;;;;;1006378;29;823;-29
2021/11/26 01:06:19;;;;;;;;;;;;;;;;;;1006422;29;956;-29
2021/11/26 01:06:50;;;;;;;;;;;;;;;;;;1006229;29;923;-29
2021/11/26 01:07:20;;;;;;;;;;;;;;;;;;1006277;29;914;-29
2021/11/26 01:07:51;;;;;;;;;;;;;;;;;;1006396;29;785;-29
2021/11/26 01:08:21;;;;;;;;;;;;;;;;;;1006392;29;835;-29
2021/11/26 01:08:52;;;;;;;;;;;;;;;;;;1006425;29;878;-29
2021/11/26 01:09:22;;;;;;;;;;;;;;;;;;1006094;29;793;-29
2021/11/26 01:09:53;;;;;;;;;;;;;;;;;;1006188;29;784;-29
2021/11/26 01:10:24;;;;;;;;;;;;;;;;;;1006394;29;808;-29
2021/11/26 01:10:55;;;;;;;;;;;;;;;;;;1006253;29;851;-29
2021/11/26 01:11:27;;;;;;;;;;;;;;;;;;1006317;29;876;-29
2021/11/26 01:11:58;;;;;;;;;;;;;;;;;;1006099;29;1964;-29
2021/11/26 01:12:28;;;;;;;;;;;;;;;;;;1006363;29;938;-29
2021/11/26 01:12:59;;;;;;;;;;;;;;;;;;1006356;29;871;-29
2021/11/26 01:13:29;;;;;;;;;;;;;;;;;;1006118;29;922;-29
2021/11/26 01:14:00;;;;;;;;;;;;;;;;;;1006356;29;927;-29
2021/11/26 01:14:30;;;;;;;;;;;;;;;;;;1006326;29;816;-29
2021/11/26 01:15:03;;;;;;;;;;;;;;;;;;1006289;29;855;-29
2021/11/26 01:15:34;;;;;;;;;;;;;;;;;;1006325;29;793;-30
2021/11/26 01:16:04;;;;;;;;;;;;;;;;;;1006333;29;872;-29
2021/11/26 01:16:35;;;;;;;;;;;;;;;;;;1006429;29;792;-29
2021/11/26 01:17:05;;;;;;;;;;;;;;;;;;1006397;29;848;-29
2021/11/26 01:17:41;;;;;;;;;;;;;;;;;;1006245;29;824;-29
2021/11/26 01:18:12;;;;;;;;;;;;;;;;;;1006295;29;942;-29
2021/11/26 01:18:43;;;;;;;;;;;;;;;;;;1006296;29;849;-29
2021/11/26 01:19:14;;;;;;;;;;;;;;;;;;1006387;29;877;-29
2021/11/26 01:19:45;;;;;;;;;;;;;;;;;;1006293;29;867;-29
2021/11/26 01:20:17;;;;;;;;;;;;;;;;;;1006208;29;772;-29
2021/11/26 01:20:48;;;;;;;;;;;;;;;;;;1006480;29;969;-29
2021/11/26 01:21:18;;;;;;;;;;;;;;;;;;1006277;29;852;-29
2021/11/26 01:21:49;;;;;;;;;;;;;;;;;;1006412;29;839;-29
2021/11/26 01:22:19;;;;;;;;;;;;;;;;;;1006417;29;798;-29
2021/11/26 01:22:50;;;;;;;;;;;;;;;;;;1006236;29;962;-29
2021/11/26 01:23:20;;;;;;;;;;;;;;;;;;1006533;29;918;-29
2021/11/26 01:23:51;;;;;;;;;;;;;;;;;;1006118;29;824;-29
2021/11/26 01:24:21;;;;;;;;;;;;;;;;;;1006269;29;856;-29
2021/11/26 01:24:52;;;;;;;;;;;;;;;;;;1006382;29;785;-29
2021/11/26 01:25:22;;;;;;;;;;;;;;;;;;1006484;29;790;-29
2021/11/26 01:25:53;;;;;;;;;;;;;;;;;;1006234;29;820;-29
2021/11/26 01:26:24;;;;;;;;;;;;;;;;;;1006558;29;896;-29
2021/11/26 01:26:55;;;;;;;;;;;;;;;;;;1006282;29;918;-29
2021/11/26 01:27:26;;;;;;;;;;;;;;;;;;1006343;29;925;-29
2021/11/26 01:27:56;;;;;;;;;;;;;;;;;;1006327;29;821;-29
2021/11/26 01:28:27;;;;;;;;;;;;;;;;;;1006299;29;807;-29
2021/11/26 01:28:57;;;;;;;;;;;;;;;;;;1006319;29;878;-29
2021/11/26 01:29:28;;;;;;;;;;;;;;;;;;1006095;29;867;-30
2021/11/26 01:29:58;;;;;;;;;;;;;;;;;;1006372;29;816;-29
2021/11/26 01:30:33;;;;;;;;;;;;;;;;;;1006193;29;812;-29
2021/11/26 01:31:03;;;;;;;;;;;;;;;;;;1006519;29;978;-29
2021/11/26 01:31:36;;;;;;;;;;;;;;;;;;1006201;29;1968;-29
2021/11/26 01:32:07;;;;;;;;;;;;;;;;;;1006366;29;784;-29
2021/11/26 01:32:38;;;;;;;;;;;;;;;;;;1006334;29;855;-29
2021/11/26 01:33:09;;;;;;;;;;;;;;;;;;1005625;29;980;-29
2021/11/26 01:33:39;;;;;;;;;;;;;;;;;;1005533;29;1072;-29
2021/11/26 01:34:10;;;;;;;;;;;;;;;;;;1005514;29;964;-29
2021/11/26 01:34:41;;;;;;;;;;;;;;;;;;1005153;29;1167;-29
2021/11/26 01:35:11;;;;;;;;;;;;;;;;;;1006154;29;1262;-29
2021/11/26 01:35:42;;;;;;;;;;;;;;;;;;1006490;29;965;-29
2021/11/26 01:36:13;;;;;;;;;;;;;;;;;;1006260;29;1007;-29
2021/11/26 01:36:46;;;;;;;;;;;;;;;;;;1006323;29;874;-29
2021/11/26 01:37:17;;;;;;;;;;;;;;;;;;1007177;29;950;-29
2021/11/26 01:37:47;;;;;;;;;;;;;;;;;;1007148;29;1014;-29
2021/11/26 01:38:19;;;;;;;;;;;;;;;;;;1007128;29;875;-29
2021/11/26 01:38:49;;;;;;;;;;;;;;;;;;1006814;29;878;-29
2021/11/26 01:39:20;;;;;;;;;;;;;;;;;;1007202;29;855;-29
2021/11/26 01:39:50;;;;;;;;;;;;;;;;;;1006937;29;1157;-29
2021/11/26 01:40:21;;;;;;;;;;;;;;;;;;1007072;29;927;-29
2021/11/26 01:40:51;;;;;;;;;;;;;;;;;;1007082;29;879;-30
2021/11/26 01:41:22;;;;;;;;;;;;;;;;;;1007090;29;926;-29
2021/11/26 01:41:54;;;;;;;;;;;;;;;;;;1007226;29;870;-29
2021/11/26 01:42:24;;;;;;;;;;;;;;;;;;1007173;29;934;-29
2021/11/26 01:42:55;;;;;;;;;;;;;;;;;;1006934;29;874;-29
2021/11/26 01:43:26;;;;;;;;;;;;;;;;;;1007171;29;880;-29
2021/11/26 01:43:56;;;;;;;;;;;;;;;;;;1006921;29;955;-29
2021/11/26 01:44:27;;;;;;;;;;;;;;;;;;1007145;29;836;-29
2021/11/26 01:44:57;;;;;;;;;;;;;;;;;;1006838;29;824;-29
2021/11/26 01:45:28;;;;;;;;;;;;;;;;;;1006998;29;763;-30
2021/11/26 01:46:08;;;;;;;;;;;;;;;;;;1007117;29;1325;-29
2021/11/26 01:46:39;;;;;;;;;;;;;;;;;;1003197;29;844;-29
2021/11/26 01:47:13;;;;;;;;;;;;;;;;;;1002830;29;1699;-29
2021/11/26 01:47:43;;;;;;;;;;;;;;;;;;1003414;29;895;-30
2021/11/26 01:48:14;;;;;;;;;;;;;;;;;;1003188;29;879;-30
2021/11/26 01:48:45;;;;;;;;;;;;;;;;;;1003183;29;918;-29
2021/11/26 01:49:15;;;;;;;;;;;;;;;;;;1002911;29;978;-29
2021/11/26 01:49:46;;;;;;;;;;;;;;;;;;1003140;29;950;-29
2021/11/26 01:50:18;;;;;;;;;;;;;;;;;;1003208;29;899;-29
2021/11/26 01:50:49;;;;;;;;;;;;;;;;;;1003262;29;977;-29
2021/11/26 01:51:20;;;;;;;;;;;;;;;;;;1003177;29;907;-29
2021/11/26 01:51:50;;;;;;;;;;;;;;;;;;1003157;29;1912;-29
2021/11/26 01:52:20;;;;;;;;;;;;;;;;;;1003343;29;841;-29
2021/11/26 01:52:51;;;;;;;;;;;;;;;;;;1003114;29;933;-29
2021/11/26 01:53:22;;;;;;;;;;;;;;;;;;1003051;29;938;-29
2021/11/26 01:53:54;;;;;;;;;;;;;;;;;;1013801;29;1036;-29
2021/11/26 01:54:25;;;;;;;;;;;;;;;;;;1013986;29;1056;-29
2021/11/26 01:54:55;;;;;;;;;;;;;;;;;;1013745;29;847;-32
2021/11/26 01:55:25;;;;;;;;;;;;;;;;;;1014255;29;838;-29
2021/11/26 01:55:56;;;;;;;;;;;;;;;;;;1003109;29;856;-29
2021/11/26 01:56:26;;;;;;;;;;;;;;;;;;1003217;29;895;-29
2021/11/26 01:56:57;;;;;;;;;;;;;;;;;;1003003;29;831;-29
2021/11/26 01:57:27;;;;;;;;;;;;;;;;;;1003248;29;816;-29
2021/11/26 01:57:58;;;;;;;;;;;;;;;;;;1003138;29;772;-29
2021/11/26 01:58:28;;;;;;;;;;;;;;;;;;1003162;29;1129;-29
2021/11/26 01:58:59;;;;;;;;;;;;;;;;;;1006473;29;1475;-29
2021/11/26 01:59:31;;;;;;;;;;;;;;;;;;1006562;29;895;-29
2021/11/26 02:00:03;;;;;;;;;;;;;;;;;;1006294;29;883;-29
2021/11/26 02:00:37;;;;;;;;;;;;;;;;;;1006114;29;781;-29
2021/11/26 02:01:09;;;;;;;;;;;;;;;;;;1003041;29;922;-29
2021/11/26 02:01:40;;;;;;;;;;;;;;;;;;1003215;29;1009;-29
2021/11/26 02:02:10;;;;;;;;;;;;;;;;;;1003108;29;871;-29
2021/11/26 02:02:41;;;;;;;;;;;;;;;;;;1003132;29;1013;-29
2021/11/26 02:03:11;;;;;;;;;;;;;;;;;;1003182;29;820;-29
2021/11/26 02:03:42;;;;;;;;;;;;;;;;;;1009880;29;891;-29
2021/11/26 02:04:13;;;;;;;;;;;;;;;;;;1009985;29;1110;-29
2021/11/26 02:04:44;;;;;;;;;;;;;;;;;;1010113;29;879;-29
2021/11/26 02:05:15;;;;;;;;;;;;;;;;;;1009662;29;1017;-29
2021/11/26 02:05:45;;;;;;;;;;;;;;;;;;1002492;29;958;-29
2021/11/26 02:06:16;;;;;;;;;;;;;;;;;;1002492;29;898;-29
2021/11/26 02:06:46;;;;;;;;;;;;;;;;;;1002174;29;1063;-29
2021/11/26 02:07:17;;;;;;;;;;;;;;;;;;1003130;29;905;-29
2021/11/26 02:07:47;;;;;;;;;;;;;;;;;;1002868;29;886;-29
2021/11/26 02:08:18;;;;;;;;;;;;;;;;;;1003171;29;981;-29
2021/11/26 02:08:49;;;;;;;;;;;;;;;;;;1008019;29;973;-29
2021/11/26 02:09:20;;;;;;;;;;;;;;;;;;1010035;29;1000;-29
2021/11/26 02:09:50;;;;;;;;;;;;;;;;;;1009988;29;1109;-29
2021/11/26 02:10:21;;;;;;;;;;;;;;;;;;1009474;29;1329;-29
2021/11/26 02:10:51;;;;;;;;;;;;;;;;;;1003077;29;1150;-29
2021/11/26 02:11:22;;;;;;;;;;;;;;;;;;1003181;29;800;-29
2021/11/26 02:11:52;;;;;;;;;;;;;;;;;;1003101;29;1916;-29
2021/11/26 02:12:23;;;;;;;;;;;;;;;;;;1003011;29;859;-29
2021/11/26 02:12:53;;;;;;;;;;;;;;;;;;1003115;29;800;-29
2021/11/26 02:13:24;;;;;;;;;;;;;;;;;;1003031;29;849;-29
2021/11/26 02:13:54;;;;;;;;;;;;;;;;;;1003128;29;910;-29
2021/11/26 02:14:25;;;;;;;;;;;;;;;;;;1002577;29;1391;-30
2021/11/26 02:14:57;;;;;;;;;;;;;;;;;;1002987;29;1154;-29
2021/11/26 02:15:31;;;;;;;;;;;;;;;;;;1003101;29;1049;-29
2021/11/26 02:16:03;;;;;;;;;;;;;;;;;;1003108;29;985;-29
2021/11/26 02:16:43;;;;;;;;;;;;;;;;;;1003099;29;915;-29
2021/11/26 02:17:14;;;;;;;;;;;;;;;;;;1003083;29;840;-29
2021/11/26 02:17:44;;;;;;;;;;;;;;;;;;1003001;29;851;-29
2021/11/26 02:18:15;;;;;;;;;;;;;;;;;;1003096;29;953;-29
2021/11/26 02:18:47;;;;;;;;;;;;;;;;;;1002725;29;942;-29
2021/11/26 02:19:22;;;;;;;;;;;;;;;;;;1010190;29;1272;-29
2021/11/26 02:19:55;;;;;;;;;;;;;;;;;;1009863;29;924;-29
2021/11/26 02:20:27;;;;;;;;;;;;;;;;;;1010121;29;998;-29
2021/11/26 02:20:58;;;;;;;;;;;;;;;;;;1008042;29;935;-29
2021/11/26 02:21:28;;;;;;;;;;;;;;;;;;1003066;29;863;-29
2021/11/26 02:21:59;;;;;;;;;;;;;;;;;;1003140;29;855;-29
2021/11/26 02:22:29;;;;;;;;;;;;;;;;;;1002946;29;926;-29
2021/11/26 02:23:00;;;;;;;;;;;;;;;;;;1002983;29;875;-29
2021/11/26 02:23:30;;;;;;;;;;;;;;;;;;1002945;29;887;-29
2021/11/26 02:24:01;;;;;;;;;;;;;;;;;;1002777;29;831;-29
2021/11/26 02:24:31;;;;;;;;;;;;;;;;;;1003204;29;989;-29
2021/11/26 02:25:02;;;;;;;;;;;;;;;;;;1002783;29;808;-29
2021/11/26 02:25:33;;;;;;;;;;;;;;;;;;1003362;29;820;-29
2021/11/26 02:26:03;;;;;;;;;;;;;;;;;;1003031;29;926;-29
2021/11/26 02:26:38;;;;;;;;;;;;;;;;;;1002981;29;867;-29
2021/11/26 02:27:08;;;;;;;;;;;;;;;;;;1002778;29;1551;-29
2021/11/26 02:27:39;;;;;;;;;;;;;;;;;;1003028;29;1064;-29
2021/11/26 02:28:10;;;;;;;;;;;;;;;;;;1003121;29;910;-29
2021/11/26 02:28:41;;;;;;;;;;;;;;;;;;1003097;29;848;-29
2021/11/26 02:29:13;;;;;;;;;;;;;;;;;;1002957;29;840;-29
2021/11/26 02:29:44;;;;;;;;;;;;;;;;;;1002941;29;911;-29
2021/11/26 02:30:18;;;;;;;;;;;;;;;;;;1003035;29;918;-29
2021/11/26 02:30:49;;;;;;;;;;;;;;;;;;1003049;29;881;-29
2021/11/26 02:31:20;;;;;;;;;;;;;;;;;;1003171;29;832;-29
2021/11/26 02:31:51;;;;;;;;;;;;;;;;;;1009663;29;1911;-29
2021/11/26 02:32:22;;;;;;;;;;;;;;;;;;1010121;29;962;-29
2021/11/26 02:32:54;;;;;;;;;;;;;;;;;;1010129;29;878;-29
2021/11/26 02:33:25;;;;;;;;;;;;;;;;;;1009168;29;768;-29
2021/11/26 02:33:55;;;;;;;;;;;;;;;;;;1003058;29;796;-29
2021/11/26 02:34:26;;;;;;;;;;;;;;;;;;1003001;29;945;-29
2021/11/26 02:34:56;;;;;;;;;;;;;;;;;;1002956;29;931;-29
2021/11/26 02:35:27;;;;;;;;;;;;;;;;;;1002937;29;831;-29
2021/11/26 02:35:58;;;;;;;;;;;;;;;;;;1003003;29;804;-29
2021/11/26 02:36:29;;;;;;;;;;;;;;;;;;1003164;29;784;-29
2021/11/26 02:36:59;;;;;;;;;;;;;;;;;;1002745;29;966;-29
2021/11/26 02:37:30;;;;;;;;;;;;;;;;;;1003091;29;918;-29
2021/11/26 02:38:00;;;;;;;;;;;;;;;;;;1003053;29;915;-29
2021/11/26 02:38:31;;;;;;;;;;;;;;;;;;1003046;29;780;-29
2021/11/26 02:39:07;;;;;;;;;;;;;;;;;;1002911;29;867;-29
2021/11/26 02:39:38;;;;;;;;;;;;;;;;;;1002800;29;989;-29
2021/11/26 02:40:10;;;;;;;;;;;;;;;;;;1002885;29;859;-29
2021/11/26 02:40:41;;;;;;;;;;;;;;;;;;1002993;29;844;-29
2021/11/26 02:41:12;;;;;;;;;;;;;;;;;;1013801;29;967;-30
2021/11/26 02:41:43;;;;;;;;;;;;;;;;;;1013718;29;1077;-29
2021/11/26 02:42:24;;;;;;;;;;;;;;;;;;1013907;29;1080;-29
2021/11/26 02:42:55;;;;;;;;;;;;;;;;;;1009840;29;891;-29
2021/11/26 02:43:25;;;;;;;;;;;;;;;;;;1002957;29;974;-29
2021/11/26 02:43:56;;;;;;;;;;;;;;;;;;1002922;29;820;-29
2021/11/26 02:44:26;;;;;;;;;;;;;;;;;;1002981;29;942;-29
2021/11/26 02:44:57;;;;;;;;;;;;;;;;;;1002873;29;959;-29
2021/11/26 02:45:28;;;;;;;;;;;;;;;;;;1003081;29;808;-29
2021/11/26 02:45:58;;;;;;;;;;;;;;;;;;1002591;29;1517;-29
2021/11/26 02:46:29;;;;;;;;;;;;;;;;;;1002846;29;1031;-29
2021/11/26 02:46:59;;;;;;;;;;;;;;;;;;1008798;29;1122;-29
2021/11/26 02:47:30;;;;;;;;;;;;;;;;;;1006019;29;1014;-29
2021/11/26 02:48:01;;;;;;;;;;;;;;;;;;1006048;29;921;-29
2021/11/26 02:48:32;;;;;;;;;;;;;;;;;;1005637;29;943;-29
2021/11/26 02:49:06;;;;;;;;;;;;;;;;;;1005799;29;855;-29
2021/11/26 02:49:36;;;;;;;;;;;;;;;;;;1010817;29;832;-29
2021/11/26 02:50:09;;;;;;;;;;;;;;;;;;1010387;29;886;-29
2021/11/26 02:50:40;;;;;;;;;;;;;;;;;;1010939;29;840;-29
2021/11/26 02:51:10;;;;;;;;;;;;;;;;;;1010764;29;855;-29
2021/11/26 02:51:40;;;;;;;;;;;;;;;;;;1010625;29;1919;-29
2021/11/26 02:52:11;;;;;;;;;;;;;;;;;;1010565;29;1517;-29
2021/11/26 02:52:42;;;;;;;;;;;;;;;;;;1010726;29;815;-30
2021/11/26 02:53:12;;;;;;;;;;;;;;;;;;1010766;29;780;-29
2021/11/26 02:53:43;;;;;;;;;;;;;;;;;;1010774;29;815;-29
2021/11/26 02:54:13;;;;;;;;;;;;;;;;;;1010420;29;843;-29
2021/11/26 02:54:44;;;;;;;;;;;;;;;;;;1010627;29;870;-29
2021/11/26 02:55:16;;;;;;;;;;;;;;;;;;1010091;29;1013;-29
2021/11/26 02:55:47;;;;;;;;;;;;;;;;;;1010236;29;837;-29
2021/11/26 02:56:17;;;;;;;;;;;;;;;;;;1010303;29;924;-29
2021/11/26 02:56:48;;;;;;;;;;;;;;;;;;1010116;29;923;-29
2021/11/26 02:57:18;;;;;;;;;;;;;;;;;;1010682;29;946;-29
2021/11/26 02:57:49;;;;;;;;;;;;;;;;;;1010709;29;871;-29
2021/11/26 02:58:19;;;;;;;;;;;;;;;;;;1010652;29;835;-29
2021/11/26 02:58:50;;;;;;;;;;;;;;;;;;1010615;29;824;-29
2021/11/26 02:59:21;;;;;;;;;;;;;;;;;;1021496;29;951;-29
2021/11/26 02:59:51;;;;;;;;;;;;;;;;;;1021698;29;933;-29
2021/11/26 03:00:24;;;;;;;;;;;;;;;;;;1021586;29;863;-29
2021/11/26 03:00:56;;;;;;;;;;;;;;;;;;1020930;29;1092;-29
2021/11/26 03:01:27;;;;;;;;;;;;;;;;;;1010575;29;915;-29
2021/11/26 03:01:57;;;;;;;;;;;;;;;;;;1010614;29;815;-29
2021/11/26 03:02:28;;;;;;;;;;;;;;;;;;1010683;29;883;-29
2021/11/26 03:02:58;;;;;;;;;;;;;;;;;;1010764;29;856;-29
2021/11/26 03:03:29;;;;;;;;;;;;;;;;;;1010445;29;930;-36
2021/11/26 03:03:59;;;;;;;;;;;;;;;;;;1010436;29;871;-29
2021/11/26 03:04:30;;;;;;;;;;;;;;;;;;1010666;29;941;-29
2021/11/26 03:05:00;;;;;;;;;;;;;;;;;;1010302;29;883;-29
2021/11/26 03:05:31;;;;;;;;;;;;;;;;;;1010807;29;922;-29
2021/11/26 03:06:03;;;;;;;;;;;;;;;;;;1010442;29;800;-29
2021/11/26 03:06:33;;;;;;;;;;;;;;;;;;1010828;29;852;-30
2021/11/26 03:07:08;;;;;;;;;;;;;;;;;;1010320;29;959;-29
2021/11/26 03:07:39;;;;;;;;;;;;;;;;;;1010676;29;867;-29
2021/11/26 03:08:09;;;;;;;;;;;;;;;;;;1010567;29;811;-29
2021/11/26 03:08:40;;;;;;;;;;;;;;;;;;1010669;29;799;-29
2021/11/26 03:09:10;;;;;;;;;;;;;;;;;;1010437;29;906;-29
2021/11/26 03:09:41;;;;;;;;;;;;;;;;;;1010676;29;883;-29
2021/11/26 03:10:17;;;;;;;;;;;;;;;;;;1010332;29;989;-29
2021/11/26 03:10:47;;;;;;;;;;;;;;;;;;1010522;29;922;-29
2021/11/26 03:11:18;;;;;;;;;;;;;;;;;;1010518;29;855;-29
2021/11/26 03:11:48;;;;;;;;;;;;;;;;;;1010653;29;1914;-29
2021/11/26 03:12:19;;;;;;;;;;;;;;;;;;1010506;29;934;-29
2021/11/26 03:12:54;;;;;;;;;;;;;;;;;;1010519;29;843;-29
2021/11/26 03:13:24;;;;;;;;;;;;;;;;;;1010368;29;839;-29
2021/11/26 03:13:55;;;;;;;;;;;;;;;;;;1010329;29;1248;-29
2021/11/26 03:14:25;;;;;;;;;;;;;;;;;;1010413;29;994;-29
2021/11/26 03:14:56;;;;;;;;;;;;;;;;;;1010581;29;827;-29
2021/11/26 03:15:27;;;;;;;;;;;;;;;;;;1010342;29;1027;-29
2021/11/26 03:15:58;;;;;;;;;;;;;;;;;;1010778;29;946;-29
2021/11/26 03:16:29;;;;;;;;;;;;;;;;;;1010398;29;852;-29
2021/11/26 03:17:00;;;;;;;;;;;;;;;;;;1009702;29;941;-29
2021/11/26 03:17:30;;;;;;;;;;;;;;;;;;1009796;29;1188;-29
2021/11/26 03:18:01;;;;;;;;;;;;;;;;;;1009826;29;1027;-29
2021/11/26 03:18:31;;;;;;;;;;;;;;;;;;1009981;29;848;-29
2021/11/26 03:19:02;;;;;;;;;;;;;;;;;;1010364;29;843;-29
2021/11/26 03:19:32;;;;;;;;;;;;;;;;;;1010519;29;812;-29
2021/11/26 03:20:03;;;;;;;;;;;;;;;;;;1010562;29;811;-29
2021/11/26 03:20:33;;;;;;;;;;;;;;;;;;1010260;29;1366;-29
2021/11/26 03:21:04;;;;;;;;;;;;;;;;;;1010406;29;1027;-29
2021/11/26 03:21:34;;;;;;;;;;;;;;;;;;1010598;29;954;-29
2021/11/26 03:22:05;;;;;;;;;;;;;;;;;;1010142;29;1041;-29
2021/11/26 03:22:35;;;;;;;;;;;;;;;;;;1010636;29;1176;-29
2021/11/26 03:23:06;;;;;;;;;;;;;;;;;;1010383;29;946;-29
2021/11/26 03:23:38;;;;;;;;;;;;;;;;;;1010524;29;882;-29
2021/11/26 03:24:08;;;;;;;;;;;;;;;;;;1010312;29;858;-29
2021/11/26 03:24:39;;;;;;;;;;;;;;;;;;1010243;29;1383;-29
2021/11/26 03:25:10;;;;;;;;;;;;;;;;;;1010244;29;979;-29
2021/11/26 03:25:41;;;;;;;;;;;;;;;;;;1010525;29;1050;-29
2021/11/26 03:26:11;;;;;;;;;;;;;;;;;;1010403;29;894;-29
2021/11/26 03:26:42;;;;;;;;;;;;;;;;;;1010511;29;866;-29
2021/11/26 03:27:13;;;;;;;;;;;;;;;;;;1010587;29;804;-29
2021/11/26 03:27:44;;;;;;;;;;;;;;;;;;1010463;29;792;-29
2021/11/26 03:28:15;;;;;;;;;;;;;;;;;;1010552;29;709;-29
2021/11/26 03:28:45;;;;;;;;;;;;;;;;;;1010399;29;835;-29
2021/11/26 03:29:16;;;;;;;;;;;;;;;;;;1017651;29;984;-29
2021/11/26 03:29:47;;;;;;;;;;;;;;;;;;1017556;29;954;-29
2021/11/26 03:30:18;;;;;;;;;;;;;;;;;;1017464;29;838;-29
2021/11/26 03:30:49;;;;;;;;;;;;;;;;;;1017370;29;914;-29
2021/11/26 03:31:19;;;;;;;;;;;;;;;;;;1010319;29;851;-29
2021/11/26 03:31:50;;;;;;;;;;;;;;;;;;1010468;29;1907;-29
2021/11/26 03:32:21;;;;;;;;;;;;;;;;;;1010446;29;874;-29
2021/11/26 03:32:52;;;;;;;;;;;;;;;;;;1010656;29;919;-29
2021/11/26 03:33:22;;;;;;;;;;;;;;;;;;1010409;29;803;-29
2021/11/26 03:33:53;;;;;;;;;;;;;;;;;;1010362;29;1050;-28
2021/11/26 03:34:23;;;;;;;;;;;;;;;;;;1010357;29;1038;-29
2021/11/26 03:34:54;;;;;;;;;;;;;;;;;;1010598;29;958;-29
2021/11/26 03:35:24;;;;;;;;;;;;;;;;;;1010294;29;978;-29
2021/11/26 03:35:55;;;;;;;;;;;;;;;;;;1010543;29;812;-29
2021/11/26 03:36:25;;;;;;;;;;;;;;;;;;1010426;29;875;-29
2021/11/26 03:36:56;;;;;;;;;;;;;;;;;;1010539;29;898;-29
2021/11/26 03:37:26;;;;;;;;;;;;;;;;;;1010425;29;891;-29
2021/11/26 03:37:57;;;;;;;;;;;;;;;;;;1010579;29;871;-29
2021/11/26 03:38:28;;;;;;;;;;;;;;;;;;1010367;29;854;-29
2021/11/26 03:38:58;;;;;;;;;;;;;;;;;;1010521;29;846;-29